Tiempo atmosférico en la estación meteorológica de A Gudiña, Ourense (910 m.)



Fecha
DESCASC
Temp. máxima en grados centígrados (hora)
DESCASC
Temp. mínima en grados centígrados (hora)
DESCASC
Temp. media en grados centígrados
DESCASC
Racha de viento máxima en m/sg (hora)
DESCASC
Velocidad máxima media en intervalos de 10 minutos(hora)
DESCASC
Precipitaciones diarias en mm
DESCASC
Precipitaciones de 00:00 a 06:00 en mm
DESCASC
Precipitaciones de 06:00 a 12:00 en mm
DESCASC
Precipitaciones de 12:00 a 18:00 en mm
DESCASC
Precipitaciones de 18:00 a 24:00 en mm
DESCASC
27-10-2020 9.4 (17:20) 5.4 (01:40) 7.4 -- (--) -- (--) 5.8 0 0.2 3.4 2.2
26-10-2020 8.1 (12:10) 2.2 (06:40) 5.2 -- (--) -- (--) 1.4 0.4 0 1 0
25-10-2020 10.6 (13:30) 3.1 (23:40) 6.9 -- (--) -- (--) 35.4 26.4 6.6 1.2 1.2
24-10-2020 10.1 (23:59) 5.4 (00:00) 7.8 -- (--) -- (--) 4 0 0.6 2.4 1
23-10-2020 11.7 (16:00) 6.6 (00:00) 9.1 -- (--) -- (--) 0 0 0 0 0
22-10-2020 12.5 (16:40) 6.9 (00:00) 9.7 -- (--) -- (--) 3.6 0.2 2 1.4 0
21-10-2020 11 (00:00) 8.7 (00:00) 9.8 -- (--) -- (--) 24.2 1.6 6 9.2 7.4
20-10-2020 11.9 (21:00) 10 (00:00) 10.9 -- (--) -- (--) 47.6 0.8 1.6 17.6 27.6
19-10-2020 14.9 (12:30) 9.7 (00:00) 12.3 -- (--) -- (--) 20 0 0 1.6 18.4
18-10-2020 19.1 (16:00) 8.3 (00:00) 13.7 -- (--) -- (--) 0 0 0 0 0
17-10-2020 16.5 (16:20) 5.4 (00:00) 11 -- (--) -- (--) 0 0 0 0 0
16-10-2020 14.2 (16:40) 1.5 (00:00) 7.8 -- (--) -- (--) 0 0 0 0 0
15-10-2020 12.2 (16:30) 4.8 (00:00) 8.5 -- (--) -- (--) 0 0 0 0 0
14-10-2020 11.4 (15:10) 5 (00:00) 8.2 -- (--) -- (--) 0 0 0 0 0
13-10-2020 14.7 (13:20) 6.7 (00:00) 10.7 -- (--) -- (--) 0 0 0 0 0
12-10-2020 17 (15:50) 4.1 (00:00) 10.5 -- (--) -- (--) 0 0 0 0 0
11-10-2020 15.6 (16:40) 4.8 (08:50) 10.2 -- (--) -- (--) 0 0 0 0 0
10-10-2020 18.4 (16:40) 9 (23:59) 13.7 -- (--) -- (--) 0 0 0 0 0
09-10-2020 20.9 (16:30) 9.7 (05:40) 15.3 -- (--) -- (--) 0 0 0 0 0

Gráficas

Temp. máximas Temp. mínimas Temp. medias Precipitaciones Rachas de viento máximas Velocidades máximas media en intervalos de 10 minutos

Datos horarios

Fecha y hora oficial Temperatura (ºC) Velocidad del viento (km/h) Dirección del viento Racha (km/h) Dirección de racha Precipitación (mm) Presión (hPa) Tendencia (hPa) Humedad (%)
2020-10-29 23:00:00 7.5 -- -- -- -- 0 -- -- 95
2020-10-29 22:00:00 7.3 -- -- -- -- 0 -- -- 94
2020-10-29 21:00:00 7.5 -- -- -- -- 0 -- -- 93
2020-10-29 20:00:00 7.7 -- -- -- -- 0 -- -- 91
2020-10-29 19:00:00 8.5 -- -- -- -- 0 -- -- 89
2020-10-29 18:00:00 10.4 -- -- -- -- 0 -- -- 83
2020-10-29 17:00:00 11.4 -- -- -- -- 0 -- -- 81
2020-10-29 16:00:00 12.3 -- -- -- -- 0 -- -- 78
2020-10-29 15:00:00 12.6 -- -- -- -- 0 -- -- 78
2020-10-29 14:00:00 12 -- -- -- -- 0 -- -- 79
2020-10-29 13:00:00 11 -- -- -- -- 0 -- -- 85
2020-10-29 12:00:00 10 -- -- -- -- 0 -- -- 89
2020-10-29 11:00:00 8.8 -- -- -- -- 0 -- -- 95
2020-10-29 10:00:00 6.6 -- -- -- -- 0 -- -- 99
2020-10-29 09:00:00 5.2 -- -- -- -- 0 -- -- 97
2020-10-29 08:00:00 4.9 -- -- -- -- 0 -- -- 97
2020-10-29 07:00:00 4.4 -- -- -- -- 0 -- -- 98
2020-10-29 06:00:00 4.6 -- -- -- -- 0 -- -- 97
2020-10-29 05:00:00 4.2 -- -- -- -- 0 -- -- 98
2020-10-29 04:00:00 4.4 -- -- -- -- 0 -- -- 97
2020-10-29 03:00:00 4.9 -- -- -- -- 0 -- -- 97
2020-10-29 02:00:00 5.2 -- -- -- -- 0 -- -- 97
2020-10-29 01:00:00 5.4 -- -- -- -- 0 -- -- 96
2020-10-29 00:00:00 6.1 -- -- -- -- 0 -- -- 95
2020-10-28 23:00:00 6.1 -- -- -- -- 0 -- -- 95
2020-10-28 22:00:00 6.7 -- -- -- -- 0 -- -- 93
2020-10-28 21:00:00 7.1 -- -- -- -- 0 -- -- 92
2020-10-28 20:00:00 8.2 -- -- -- -- 0 -- -- 91
2020-10-28 19:00:00 9 -- -- -- -- 0 -- -- 82
2020-10-28 18:00:00 11 -- -- -- -- 0 -- -- 74
2020-10-28 17:00:00 11.9 -- -- -- -- 0 -- -- 70
2020-10-28 16:00:00 13.2 -- -- -- -- 0 -- -- 69
2020-10-28 15:00:00 12.7 -- -- -- -- 0 -- -- 69
2020-10-28 14:00:00 11.4 -- -- -- -- 0 -- -- 80
2020-10-28 13:00:00 11.5 -- -- -- -- 0 -- -- 82
2020-10-28 12:00:00 11 -- -- -- -- 0 -- -- 80
2020-10-28 11:00:00 9.8 -- -- -- -- 0 -- -- 92
2020-10-28 10:00:00 9.4 -- -- -- -- 0 -- -- 95
2020-10-28 09:00:00 8.9 -- -- -- -- 0 -- -- 97
2020-10-28 08:00:00 8.7 -- -- -- -- 0 -- -- 97
2020-10-28 07:00:00 8.3 -- -- -- -- 0 -- -- 96
2020-10-28 06:00:00 7.9 -- -- -- -- 0 -- -- 94
2020-10-28 05:00:00 8.3 -- -- -- -- 0 -- -- 95
2020-10-28 04:00:00 9 -- -- -- -- 0 -- -- 96
2020-10-28 03:00:00 9.3 -- -- -- -- 0 -- -- 100
2020-10-28 02:00:00 9.5 -- -- -- -- 0.4 -- -- 100
2020-10-28 01:00:00 9.4 -- -- -- -- 0.2 -- -- 100
2020-10-28 00:00:00 9.4 -- -- -- -- 0 -- -- 100
2020-10-27 23:00:00 9.3 -- -- -- -- 0.4 -- -- 100
2020-10-27 22:00:00 9.2 -- -- -- -- 0.6 -- -- 100
2020-10-27 21:00:00 9.1 -- -- -- -- 0.4 -- -- 100
2020-10-27 20:00:00 9.2 -- -- -- -- 0.6 -- -- 100
2020-10-27 19:00:00 8.9 -- -- -- -- 0.2 -- -- 100
2020-10-27 18:00:00 9.4 -- -- -- -- 0.2 -- -- 100
2020-10-27 17:00:00 9.2 -- -- -- -- 1.4 -- -- 100
2020-10-27 16:00:00 9.3 -- -- -- -- 1 -- -- 100
2020-10-27 15:00:00 9 -- -- -- -- 0.6 -- -- 100
2020-10-27 14:00:00 8.5 -- -- -- -- 0.2 -- -- 100
2020-10-27 13:00:00 8.4 -- -- -- -- 0 -- -- 100
2020-10-27 12:00:00 8.1 -- -- -- -- 0 -- -- 100
2020-10-27 11:00:00 7.7 -- -- -- -- 0 -- -- 100
2020-10-27 10:00:00 6.9 -- -- -- -- 0.2 -- -- 100
2020-10-27 09:00:00 6.3 -- -- -- -- 0 -- -- 100
2020-10-27 08:00:00 5.9 -- -- -- -- 0 -- -- 100
2020-10-27 07:00:00 5.8 -- -- -- -- 0 -- -- 100
2020-10-27 06:00:00 5.8 -- -- -- -- 0 -- -- 100
2020-10-27 05:00:00 5.8 -- -- -- -- 0 -- -- 100
2020-10-27 04:00:00 5.6 -- -- -- -- 0 -- -- 99
2020-10-27 03:00:00 5.4 -- -- -- -- 0 -- -- 99
2020-10-27 02:00:00 5.4 -- -- -- -- 0 -- -- 98
2020-10-27 01:00:00 5.6 -- -- -- -- 0 -- -- 97
2020-10-27 00:00:00 6 -- -- -- -- 0 -- -- 94
2020-10-26 23:00:00 5.9 -- -- -- -- 0 -- -- 96
2020-10-26 22:00:00 5.8 -- -- -- -- 0 -- -- 94
2020-10-26 21:00:00 5.7 -- -- -- -- 0 -- -- 93
2020-10-26 20:00:00 5.8 -- -- -- -- 0 -- -- 94
2020-10-26 19:00:00 5.7 -- -- -- -- 0 -- -- 91
2020-10-26 18:00:00 6.4 -- -- -- -- 0 -- -- 90
2020-10-26 17:00:00 6.8 -- -- -- -- 0.4 -- -- 90
2020-10-26 16:00:00 7.6 -- -- -- -- 0 -- -- 88
2020-10-26 15:00:00 7.5 -- -- -- -- 0.4 -- -- 90
2020-10-26 14:00:00 7.4 -- -- -- -- 0.2 -- -- 90
2020-10-26 13:00:00 7.4 -- -- -- -- 0 -- -- 84
2020-10-26 12:00:00 7.7 -- -- -- -- 0 -- -- 85
2020-10-26 11:00:00 5.9 -- -- -- -- 0 -- -- 95
2020-10-26 10:00:00 4.7 -- -- -- -- 0 -- -- 97
2020-10-26 09:00:00 3.4 -- -- -- -- 0 -- -- 99
2020-10-26 08:00:00 2.6 -- -- -- -- 0 -- -- 98
2020-10-26 07:00:00 2.2 -- -- -- -- 0 -- -- 98
2020-10-26 06:00:00 2.4 -- -- -- -- 0 -- -- 97
2020-10-26 05:00:00 2.3 -- -- -- -- 0 -- -- 96
2020-10-26 04:00:00 2.8 -- -- -- -- 0.4 -- -- 95
2020-10-26 03:00:00 3.2 -- -- -- -- 0 -- -- 97
2020-10-26 02:00:00 3.4 -- -- -- -- 0 -- -- 97
2020-10-26 01:00:00 3.2 -- -- -- -- 0 -- -- 95
2020-10-26 00:00:00 3.1 -- -- -- -- 0.2 -- -- 95
2020-10-25 23:00:00 3.7 -- -- -- -- 0.4 -- -- 95
2020-10-25 22:00:00 4.2 -- -- -- -- 0 -- -- 97
2020-10-25 21:00:00 4.5 -- -- -- -- 0.4 -- -- 95
2020-10-25 20:00:00 5.2 -- -- -- -- 0 -- -- 94
2020-10-25 19:00:00 4.8 -- -- -- -- 0.2 -- -- 92
2020-10-25 18:00:00 6 -- -- -- -- 0 -- -- 88
2020-10-25 17:00:00 6.5 -- -- -- -- 0.2 -- -- 89
2020-10-25 16:00:00 6.7 -- -- -- -- 0.2 -- -- 90
2020-10-25 15:00:00 6.4 -- -- -- -- 0.8 -- -- 90
2020-10-25 14:00:00 10.3 -- -- -- -- 0 -- -- 79
2020-10-25 13:00:00 10 -- -- -- -- 0 -- -- 92
2020-10-25 12:00:00 9.4 -- -- -- -- 0.4 -- -- 98
2020-10-25 11:00:00 8.9 -- -- -- -- 0.2 -- -- 99
2020-10-25 10:00:00 8.7 -- -- -- -- 0.8 -- -- 100
2020-10-25 09:00:00 8.9 -- -- -- -- 2.4 -- -- 99
2020-10-25 08:00:00 9.4 -- -- -- -- 0.2 -- -- 96
2020-10-25 07:00:00 9.5 -- -- -- -- 2.6 -- -- 97
2020-10-25 06:00:00 10.4 -- -- -- -- 7 -- -- 100
2020-10-25 05:00:00 10.3 -- -- -- -- 8.6 -- -- 100
2020-10-25 04:00:00 10.1 -- -- -- -- 7 -- -- 100
2020-10-25 03:00:00 10.1 -- -- -- -- 1.4 -- -- 100
2020-10-25 02:00:00 10 -- -- -- -- 2.4 -- -- 99
2020-10-25 01:00:00 10.2 -- -- -- -- 0 -- -- 100
2020-10-25 00:00:00 10.1 -- -- -- -- 0.2 -- -- 100
2020-10-24 23:00:00 9.9 -- -- -- -- 0.2 -- -- 100
2020-10-24 22:00:00 9.9 -- -- -- -- 0 -- -- 100
2020-10-24 21:00:00 10 -- -- -- -- 0.4 -- -- 100
2020-10-24 20:00:00 9.9 -- -- -- -- 0.2 -- -- 100
2020-10-24 19:00:00 9.8 -- -- -- -- 0 -- -- 100
2020-10-24 18:00:00 9.8 -- -- -- -- 0.6 -- -- 100
2020-10-24 17:00:00 9.7 -- -- -- -- 0 -- -- 100
2020-10-24 16:00:00 8.5 -- -- -- -- 0.4 -- -- 100
2020-10-24 15:00:00 8.1 -- -- -- -- 0.4 -- -- 100
2020-10-24 14:00:00 7.9 -- -- -- -- 0.4 -- -- 100
2020-10-24 13:00:00 7.6 -- -- -- -- 0.6 -- -- 100
2020-10-24 12:00:00 7.3 -- -- -- -- 0 -- -- 100
2020-10-24 11:00:00 7 -- -- -- -- 0.4 -- -- 100
2020-10-24 10:00:00 6.7 -- -- -- -- 0 -- -- 100
2020-10-24 09:00:00 6.6 -- -- -- -- 0.2 -- -- 99
2020-10-24 08:00:00 6.6 -- -- -- -- 0 -- -- 98
2020-10-24 07:00:00 6.6 -- -- -- -- 0 -- -- 97
2020-10-24 06:00:00 6.5 -- -- -- -- 0 -- -- 98
2020-10-24 05:00:00 6.3 -- -- -- -- 0 -- -- 97
2020-10-24 04:00:00 6 -- -- -- -- 0 -- -- 98
2020-10-24 03:00:00 5.4 -- -- -- -- 0 -- -- 97
2020-10-24 02:00:00 5.8 -- -- -- -- 0 -- -- 95
2020-10-24 01:00:00 6.6 -- -- -- -- 0 -- -- 93
2020-10-24 00:00:00 7.4 -- -- -- -- 0 -- -- 92
2020-10-23 23:00:00 7.8 -- -- -- -- 0 -- -- 89
2020-10-23 22:00:00 7.9 -- -- -- -- 0 -- -- 89
2020-10-23 21:00:00 8 -- -- -- -- 0 -- -- 88
2020-10-23 20:00:00 8.9 -- -- -- -- 0 -- -- 82
2020-10-23 19:00:00 10.6 -- -- -- -- 0 -- -- 76
2020-10-23 18:00:00 11.1 -- -- -- -- 0 -- -- 81
2020-10-23 17:00:00 11.6 -- -- -- -- 0 -- -- 77
2020-10-23 16:00:00 11.7 -- -- -- -- 0 -- -- 75
2020-10-23 15:00:00 10.1 -- -- -- -- 0 -- -- 83
2020-10-23 14:00:00 9.6 -- -- -- -- 0 -- -- 83
2020-10-23 13:00:00 8.9 -- -- -- -- 0 -- -- 87
2020-10-23 12:00:00 8.2 -- -- -- -- 0 -- -- 93
2020-10-23 11:00:00 7.9 -- -- -- -- 0 -- -- 98
2020-10-23 10:00:00 7 -- -- -- -- 0 -- -- 99
2020-10-23 09:00:00 7.1 -- -- -- -- 0 -- -- 99
2020-10-23 08:00:00 7.2 -- -- -- -- 0 -- -- 99
2020-10-23 07:00:00 7.2 -- -- -- -- 0 -- -- 99
2020-10-23 06:00:00 7.1 -- -- -- -- 0 -- -- 98
2020-10-23 05:00:00 7.2 -- -- -- -- 0 -- -- 98
2020-10-23 04:00:00 7.2 -- -- -- -- 0 -- -- 99
2020-10-23 03:00:00 7 -- -- -- -- 0 -- -- 97
2020-10-23 02:00:00 7.2 -- -- -- -- 0 -- -- 98
2020-10-23 01:00:00 6.9 -- -- -- -- 0 -- -- 98
2020-10-23 00:00:00 6.9 -- -- -- -- 0 -- -- 96
2020-10-22 23:00:00 7.5 -- -- -- -- 0 -- -- 95
2020-10-22 22:00:00 8.6 -- -- -- -- 0 -- -- 91
2020-10-22 21:00:00 9.1 -- -- -- -- 0 -- -- 88
2020-10-22 20:00:00 9.4 -- -- -- -- 0 -- -- 87
2020-10-22 19:00:00 10.8 -- -- -- -- 0 -- -- 78
2020-10-22 18:00:00 11.9 -- -- -- -- 0 -- -- 81
2020-10-22 17:00:00 12.2 -- -- -- -- 0.2 -- -- 82
2020-10-22 16:00:00 11.2 -- -- -- -- 0 -- -- 93
2020-10-22 15:00:00 9.7 -- -- -- -- 0 -- -- 97
2020-10-22 14:00:00 9.3 -- -- -- -- 0.4 -- -- 98
2020-10-22 13:00:00 9.9 -- -- -- -- 0.8 -- -- 97
2020-10-22 12:00:00 9.3 -- -- -- -- 1.2 -- -- 100
2020-10-22 11:00:00 8.9 -- -- -- -- 0.2 -- -- 100
2020-10-22 10:00:00 8.8 -- -- -- -- 0.4 -- -- 100
2020-10-22 09:00:00 8.5 -- -- -- -- 0 -- -- 100
2020-10-22 08:00:00 8.5 -- -- -- -- 0 -- -- 99
2020-10-22 07:00:00 8.5 -- -- -- -- 0.2 -- -- 100
2020-10-22 06:00:00 8.6 -- -- -- -- 0 -- -- 100
2020-10-22 05:00:00 8.7 -- -- -- -- 0 -- -- 99
2020-10-22 04:00:00 8.8 -- -- -- -- 0.2 -- -- 100
2020-10-22 03:00:00 8.9 -- -- -- -- 0 -- -- 100
2020-10-22 02:00:00 8.7 -- -- -- -- 0 -- -- 99
2020-10-22 01:00:00 9.1 -- -- -- -- 0 -- -- 99
2020-10-22 00:00:00 8.7 -- -- -- -- 0.2 -- -- 99
2020-10-21 23:00:00 9 -- -- -- -- 1.2 -- -- 99
2020-10-21 22:00:00 8.8 -- -- -- -- 0 -- -- 99
2020-10-21 21:00:00 8.9 -- -- -- -- 1.6 -- -- 98
2020-10-21 20:00:00 9.4 -- -- -- -- 4.4 -- -- 96
2020-10-21 19:00:00 10.1 -- -- -- -- 0 -- -- 97
2020-10-21 18:00:00 9.9 -- -- -- -- 0.4 -- -- 95
2020-10-21 17:00:00 10.8 -- -- -- -- 1 -- -- 97
2020-10-21 16:00:00 10.2 -- -- -- -- 1 -- -- 97
2020-10-21 15:00:00 10.6 -- -- -- -- 0.2 -- -- 98
2020-10-21 14:00:00 10 -- -- -- -- 6.4 -- -- 98
2020-10-21 13:00:00 11 -- -- -- -- 0.2 -- -- 97
2020-10-21 12:00:00 10.1 -- -- -- -- 0 -- -- 98
2020-10-21 11:00:00 9.5 -- -- -- -- 0 -- -- 97
2020-10-21 10:00:00 9.1 -- -- -- -- 1 -- -- 99
2020-10-21 09:00:00 9.4 -- -- -- -- 3.6 -- -- 99
2020-10-21 08:00:00 9.5 -- -- -- -- 1.4 -- -- 99
2020-10-21 07:00:00 9.6 -- -- -- -- 0 -- -- 97
2020-10-21 06:00:00 9.7 -- -- -- -- 0 -- -- 97
2020-10-21 05:00:00 10 -- -- -- -- 1 -- -- 98
2020-10-21 04:00:00 10.3 -- -- -- -- 0 -- -- 98
2020-10-21 03:00:00 10.3 -- -- -- -- 0 -- -- 98
2020-10-21 02:00:00 10.5 -- -- -- -- 0.2 -- -- 98
2020-10-21 01:00:00 10.9 -- -- -- -- 0.4 -- -- 99
2020-10-21 00:00:00 11 -- -- -- -- 0.8 -- -- 99
2020-10-20 23:00:00 11.5 -- -- -- -- 2.6 -- -- 99
2020-10-20 22:00:00 11.8 -- -- -- -- 6.6 -- -- 99
2020-10-20 21:00:00 11.9 -- -- -- -- 3.8 -- -- 99
2020-10-20 20:00:00 11.6 -- -- -- -- 3.4 -- -- 99
2020-10-20 19:00:00 11.5 -- -- -- -- 10.4 -- -- 99
2020-10-20 18:00:00 11.2 -- -- -- -- 6.2 -- -- 99
2020-10-20 17:00:00 10.5 -- -- -- -- 4 -- -- 99
2020-10-20 16:00:00 10 -- -- -- -- 4.2 -- -- 98
2020-10-20 15:00:00 10.2 -- -- -- -- 1.6 -- -- 98
2020-10-20 14:00:00 10.8 -- -- -- -- 1.4 -- -- 97
2020-10-20 13:00:00 11.6 -- -- -- -- 0.2 -- -- 97
2020-10-20 12:00:00 11.7 -- -- -- -- 1.4 -- -- 99
2020-10-20 11:00:00 11.8 -- -- -- -- 0 -- -- 99
2020-10-20 10:00:00 11.6 -- -- -- -- 0 -- -- 99
2020-10-20 09:00:00 11.5 -- -- -- -- 0 -- -- 99
2020-10-20 08:00:00 11.4 -- -- -- -- 0.2 -- -- 99
2020-10-20 07:00:00 11.4 -- -- -- -- 0 -- -- 99
2020-10-20 06:00:00 11.3 -- -- -- -- 0 -- -- 99
2020-10-20 05:00:00 11.3 -- -- -- -- 0.2 -- -- 99
2020-10-20 04:00:00 11.1 -- -- -- -- 0 -- -- 99
2020-10-20 03:00:00 11 -- -- -- -- 0 -- -- 99
2020-10-20 02:00:00 10.8 -- -- -- -- 0.4 -- -- 98
2020-10-20 01:00:00 10.7 -- -- -- -- 0.2 -- -- 98
2020-10-20 00:00:00 10.5 -- -- -- -- 1.2 -- -- 98
2020-10-19 23:00:00 10.2 -- -- -- -- 1 -- -- 98
2020-10-19 22:00:00 9.8 -- -- -- -- 2.4 -- -- 97
2020-10-19 21:00:00 9.8 -- -- -- -- 5 -- -- 97
2020-10-19 20:00:00 9.8 -- -- -- -- 5.6 -- -- 95
2020-10-19 19:00:00 10 -- -- -- -- 3.2 -- -- 91
2020-10-19 18:00:00 10.8 -- -- -- -- 1.2 -- -- 84
2020-10-19 17:00:00 13.4 -- -- -- -- 0 -- -- 59
2020-10-19 16:00:00 13 -- -- -- -- 0.4 -- -- 68
2020-10-19 15:00:00 14.9 -- -- -- -- 0 -- -- 51
2020-10-19 14:00:00 14.8 -- -- -- -- 0 -- -- 56
2020-10-19 13:00:00 14.6 -- -- -- -- 0 -- -- 52
2020-10-19 12:00:00 14.3 -- -- -- -- 0 -- -- 52
2020-10-19 11:00:00 13.5 -- -- -- -- 0 -- -- 50
2020-10-19 10:00:00 13 -- -- -- -- 0 -- -- 50
2020-10-19 09:00:00 12.2 -- -- -- -- 0 -- -- 51
2020-10-19 08:00:00 12.4 -- -- -- -- 0 -- -- 50
2020-10-19 07:00:00 13.2 -- -- -- -- 0 -- -- 47
2020-10-19 06:00:00 13.1 -- -- -- -- 0 -- -- 47
2020-10-19 05:00:00 13.7 -- -- -- -- 0 -- -- 46
2020-10-19 04:00:00 12.7 -- -- -- -- 0 -- -- 53
2020-10-19 03:00:00 12.9 -- -- -- -- 0 -- -- 55
2020-10-19 02:00:00 12.9 -- -- -- -- 0 -- -- 56
2020-10-19 01:00:00 13.5 -- -- -- -- 0 -- -- 54
2020-10-19 00:00:00 13.4 -- -- -- -- 0 -- -- 51
2020-10-18 23:00:00 13.6 -- -- -- -- 0 -- -- 51
2020-10-18 22:00:00 12.8 -- -- -- -- 0 -- -- 56
2020-10-18 21:00:00 12.9 -- -- -- -- 0 -- -- 55
2020-10-18 20:00:00 13.9 -- -- -- -- 0 -- -- 53
2020-10-18 19:00:00 16 -- -- -- -- 0 -- -- 46
2020-10-18 18:00:00 17.5 -- -- -- -- 0 -- -- 45
2020-10-18 17:00:00 18.7 -- -- -- -- 0 -- -- 42
2020-10-18 16:00:00 19.1 -- -- -- -- 0 -- -- 44
2020-10-18 15:00:00 18.1 -- -- -- -- 0 -- -- 48
2020-10-18 14:00:00 17.1 -- -- -- -- 0 -- -- 52
2020-10-18 13:00:00 16.3 -- -- -- -- 0 -- -- 60
2020-10-18 12:00:00 14.1 -- -- -- -- 0 -- -- 69
2020-10-18 11:00:00 11.2 -- -- -- -- 0 -- -- 82
2020-10-18 10:00:00 9.8 -- -- -- -- 0 -- -- 81
2020-10-18 09:00:00 9.8 -- -- -- -- 0 -- -- 80
2020-10-18 08:00:00 9 -- -- -- -- 0 -- -- 86
2020-10-18 07:00:00 9.3 -- -- -- -- 0 -- -- 86
2020-10-18 06:00:00 9.2 -- -- -- -- 0 -- -- 88
2020-10-18 05:00:00 8.9 -- -- -- -- 0 -- -- 90
2020-10-18 04:00:00 8.3 -- -- -- -- 0 -- -- 92
2020-10-18 03:00:00 8.9 -- -- -- -- 0 -- -- 91
2020-10-18 02:00:00 9.2 -- -- -- -- 0 -- -- 91
2020-10-18 01:00:00 9.4 -- -- -- -- 0 -- -- 92
2020-10-18 00:00:00 9.7 -- -- -- -- 0 -- -- 93
2020-10-17 23:00:00 10.1 -- -- -- -- 0 -- -- 89
2020-10-17 22:00:00 10.6 -- -- -- -- 0 -- -- 90
2020-10-17 21:00:00 11.6 -- -- -- -- 0 -- -- 84
2020-10-17 20:00:00 12.7 -- -- -- -- 0 -- -- 74
2020-10-17 19:00:00 14.8 -- -- -- -- 0 -- -- 61
2020-10-17 18:00:00 15.9 -- -- -- -- 0 -- -- 60
2020-10-17 17:00:00 16.1 -- -- -- -- 0 -- -- 61
2020-10-17 16:00:00 15.9 -- -- -- -- 0 -- -- 62
2020-10-17 15:00:00 14.6 -- -- -- -- 0 -- -- 60
2020-10-17 14:00:00 13.1 -- -- -- -- 0 -- -- 60
2020-10-17 13:00:00 11.8 -- -- -- -- 0 -- -- 63
2020-10-17 12:00:00 10.5 -- -- -- -- 0 -- -- 70
2020-10-17 11:00:00 8.7 -- -- -- -- 0 -- -- 79
2020-10-17 10:00:00 6.6 -- -- -- -- 0 -- -- 82
2020-10-17 09:00:00 5.8 -- -- -- -- 0 -- -- 81
2020-10-17 08:00:00 5.8 -- -- -- -- 0 -- -- 81
2020-10-17 07:00:00 5.5 -- -- -- -- 0 -- -- 81
2020-10-17 06:00:00 5.4 -- -- -- -- 0 -- -- 81
2020-10-17 05:00:00 5.8 -- -- -- -- 0 -- -- 78
2020-10-17 04:00:00 5.8 -- -- -- -- 0 -- -- 78
2020-10-17 03:00:00 6.3 -- -- -- -- 0 -- -- 77
2020-10-17 02:00:00 6.8 -- -- -- -- 0 -- -- 74
2020-10-17 01:00:00 6.9 -- -- -- -- 0 -- -- 72
2020-10-17 00:00:00 7.3 -- -- -- -- 0 -- -- 70
2020-10-16 23:00:00 7.6 -- -- -- -- 0 -- -- 68
2020-10-16 22:00:00 7.9 -- -- -- -- 0 -- -- 65
2020-10-16 21:00:00 8.7 -- -- -- -- 0 -- -- 61
2020-10-16 20:00:00 10 -- -- -- -- 0 -- -- 57
2020-10-16 19:00:00 12.6 -- -- -- -- 0 -- -- 49
2020-10-16 18:00:00 13.3 -- -- -- -- 0 -- -- 47
2020-10-16 17:00:00 14 -- -- -- -- 0 -- -- 49
2020-10-16 16:00:00 13.9 -- -- -- -- 0 -- -- 50
2020-10-16 15:00:00 12.6 -- -- -- -- 0 -- -- 55
2020-10-16 14:00:00 11.8 -- -- -- -- 0 -- -- 58
2020-10-16 13:00:00 10.2 -- -- -- -- 0 -- -- 60
2020-10-16 12:00:00 7.8 -- -- -- -- 0 -- -- 71
2020-10-16 11:00:00 5.6 -- -- -- -- 0 -- -- 75
2020-10-16 10:00:00 3.1 -- -- -- -- 0 -- -- 81
2020-10-16 09:00:00 1.6 -- -- -- -- 0 -- -- 85
2020-10-16 08:00:00 1.6 -- -- -- -- 0 -- -- 83
2020-10-16 07:00:00 2.1 -- -- -- -- 0 -- -- 82
2020-10-16 06:00:00 3 -- -- -- -- 0 -- -- 80
2020-10-16 05:00:00 3.5 -- -- -- -- 0 -- -- 80
2020-10-16 04:00:00 4.2 -- -- -- -- 0 -- -- 78
2020-10-16 03:00:00 4.1 -- -- -- -- 0 -- -- 76
2020-10-16 02:00:00 4.7 -- -- -- -- 0 -- -- 77
2020-10-16 01:00:00 5.3 -- -- -- -- 0 -- -- 80
2020-10-16 00:00:00 5.8 -- -- -- -- 0 -- -- 82
2020-10-15 23:00:00 7 -- -- -- -- 0 -- -- 82
2020-10-15 22:00:00 7.3 -- -- -- -- 0 -- -- 81
2020-10-15 21:00:00 8.1 -- -- -- -- 0 -- -- 78
2020-10-15 20:00:00 9.2 -- -- -- -- 0 -- -- 73
2020-10-15 19:00:00 10.8 -- -- -- -- 0 -- -- 66
2020-10-15 18:00:00 11.6 -- -- -- -- 0 -- -- 61
2020-10-15 17:00:00 12.1 -- -- -- -- 0 -- -- 61
2020-10-15 16:00:00 11.8 -- -- -- -- 0 -- -- 61
2020-10-15 15:00:00 11.2 -- -- -- -- 0 -- -- 64
2020-10-15 14:00:00 10.9 -- -- -- -- 0 -- -- 63
2020-10-15 13:00:00 10 -- -- -- -- 0 -- -- 65
2020-10-15 12:00:00 8.8 -- -- -- -- 0 -- -- 74
2020-10-15 11:00:00 7.1 -- -- -- -- 0 -- -- 87
2020-10-15 10:00:00 6.4 -- -- -- -- 0 -- -- 91
2020-10-15 09:00:00 5.8 -- -- -- -- 0 -- -- 94
2020-10-15 08:00:00 5.3 -- -- -- -- 0 -- -- 95
2020-10-15 07:00:00 5.1 -- -- -- -- 0 -- -- 94
2020-10-15 06:00:00 4.9 -- -- -- -- 0 -- -- 93
2020-10-15 05:00:00 5.2 -- -- -- -- 0 -- -- 93
2020-10-15 04:00:00 5.1 -- -- -- -- 0 -- -- 94